Aviation Digital Data Service (ADDS)

Output produced by METARs form (1932 UTC 22 May 2019)
found at http://aviationweather.gov/metar/data/
 
METAR text: KDKB 221910Z AUTO 19023G31KT 10SM CLR 25/16 A2983 RMK AO2 T02460162
Conditions at: KDKB (DE KALB , IL, US) observed 1910 UTC 22 May 2019
Temperature: 24.6°C (76°F)
Dewpoint: 16.2°C (61°F) [RH = 60%]
Pressure (altimeter): 29.83 inches Hg (1010.2 mb)
Winds: from the S (190 degrees) at 26 MPH (23 knots; 11.8 m/s)
gusting to 36 MPH (31 knots; 15.9 m/s)
Visibility: 10 or more miles (16+ km)
Ceiling: at least 12,000 feet AGL
Clouds: sky clear below 12,000 feet AGL
Weather: automated observation with no human augmentation;
there may or may not be significant weather present at this time